Time;durP1;ratioP1;P1;durP2;ratioP2;P2;SDS_P1;SDS_P2;PMS_P1;PMS_P2;Temp;Humidity;BMP_temperature;BMP_pressure;BME280_temperature;BME280_humidity;BME280_pressure;Samples;Min_cycle;Max_cycle;Signal;HPM_P1;HPM_P2
2024/01/03 00:00:28;;;;;;;2.40;0.90;;;9.70;99.90;;;;;;5061285;28;20511;-73
2024/01/03 00:02:57;;;;;;;2.93;0.80;;;9.60;99.90;;;;;;5080083;28;20458;-74
2024/01/03 00:05:25;;;;;;;0.93;0.80;;;9.60;99.90;;;;;;5067578;28;20450;-73
2024/01/03 00:07:51;;;;;;;1.30;0.70;;;9.60;99.90;;;;;;5072025;28;20968;-74
2024/01/03 00:10:32;;;;;;;2.97;0.90;;;9.60;99.90;;;;;;5053606;28;20469;-74
2024/01/03 00:12:58;;;;;;;1.00;0.80;;;9.60;99.90;;;;;;5068165;28;21003;-73
2024/01/03 00:15:36;;;;;;;1.20;0.80;;;9.60;99.90;;;;;;5081471;28;20454;-73
2024/01/03 00:18:06;;;;;;;3.67;1.23;;;9.60;99.90;;;;;;5046358;28;20443;-74
2024/01/03 00:20:32;;;;;;;2.10;0.80;;;9.60;99.90;;;;;;5077165;28;20458;-74
2024/01/03 00:23:02;;;;;;;2.37;0.87;;;9.60;99.90;;;;;;5039941;28;20455;-73
2024/01/03 00:25:32;;;;;;;1.37;0.80;;;9.60;99.90;;;;;;5064477;28;20451;-74
2024/01/03 00:27:59;;;;;;;0.70;0.60;;;9.60;99.90;;;;;;5052546;28;20469;-73
2024/01/03 00:30:25;;;;;;;0.67;0.63;;;9.60;99.90;;;;;;5071719;28;20462;-73
2024/01/03 00:32:51;;;;;;;0.67;0.67;;;9.60;99.90;;;;;;5054770;28;20485;-74
2024/01/03 00:35:18;;;;;;;1.53;0.70;;;9.70;99.90;;;;;;5068455;28;20219;-73
2024/01/03 00:37:45;;;;;;;2.30;0.93;;;9.70;99.90;;;;;;5069047;28;20212;-74
2024/01/03 00:40:57;;;;;;;1.33;0.67;;;9.60;99.90;;;;;;5077436;28;20515;-74
2024/01/03 00:43:22;;;;;;;2.53;0.63;;;9.60;99.90;;;;;;5066608;28;20442;-74
2024/01/03 00:45:49;;;;;;;2.33;0.77;;;9.60;99.90;;;;;;5070936;28;20495;-74
2024/01/03 00:48:16;;;;;;;1.77;0.80;;;9.60;99.90;;;;;;5055225;28;20215;-74
2024/01/03 00:50:41;;;;;;;0.97;0.60;;;9.60;99.90;;;;;;5070726;28;20445;-74
2024/01/03 00:53:08;;;;;;;1.90;0.93;;;9.50;99.90;;;;;;5069919;28;20441;-74
2024/01/03 00:55:34;;;;;;;0.67;0.47;;;9.60;99.90;;;;;;5068500;28;20242;-74
2024/01/03 00:58:00;;;;;;;1.33;1.03;;;9.60;99.90;;;;;;5059024;28;20449;-74
2024/01/03 01:00:27;;;;;;;1.10;0.83;;;9.60;99.90;;;;;;5073046;28;20457;-73
2024/01/03 01:02:52;;;;;;;3.03;0.77;;;9.50;99.90;;;;;;5086738;28;20494;-74
2024/01/03 01:05:18;;;;;;;3.07;1.00;;;9.50;99.90;;;;;;5069640;28;20457;-73
2024/01/03 01:07:44;;;;;;;1.53;0.70;;;9.50;99.90;;;;;;5068591;28;20637;-74
2024/01/03 01:10:10;;;;;;;1.07;0.70;;;9.50;99.90;;;;;;5058686;28;20221;-73
2024/01/03 01:12:35;;;;;;;2.83;0.57;;;9.50;99.90;;;;;;5085776;28;20694;-73
2024/01/03 01:15:01;;;;;;;0.87;0.60;;;9.50;99.90;;;;;;5070789;28;20240;-74
2024/01/03 01:17:27;;;;;;;1.97;0.70;;;9.50;99.90;;;;;;5059972;28;20844;-73
2024/01/03 01:19:52;;;;;;;0.93;0.70;;;9.50;99.90;;;;;;5069813;28;20268;-74
2024/01/03 01:22:19;;;;;;;0.60;0.60;;;9.50;99.90;;;;;;5071191;28;20719;-74
2024/01/03 01:24:45;;;;;;;0.57;0.57;;;9.50;99.90;;;;;;5069995;28;20561;-74
2024/01/03 01:27:10;;;;;;;2.23;0.73;;;9.50;99.90;;;;;;5072156;28;20530;-73
2024/01/03 01:29:36;;;;;;;3.90;0.60;;;9.50;99.90;;;;;;5081578;28;20219;-73
2024/01/03 01:32:02;;;;;;;1.00;0.47;;;9.50;99.90;;;;;;5057589;28;20224;-73
2024/01/03 01:34:28;;;;;;;3.47;0.50;;;9.40;99.90;;;;;;5051373;28;20228;-73
2024/01/03 01:36:53;;;;;;;2.27;0.57;;;9.40;99.90;;;;;;5069280;28;20466;-73
2024/01/03 01:39:19;;;;;;;0.83;0.47;;;9.40;99.90;;;;;;5069816;28;20228;-73
2024/01/03 01:41:45;;;;;;;0.50;0.50;;;9.40;99.90;;;;;;5074572;28;20289;-73
2024/01/03 01:44:10;;;;;;;2.13;1.30;;;9.40;99.90;;;;;;5085651;28;20212;-73
2024/01/03 01:46:37;;;;;;;0.60;0.40;;;9.40;99.90;;;;;;5067804;28;20238;-73
2024/01/03 01:49:07;;;;;;;1.67;0.70;;;9.30;99.90;;;;;;5069145;28;20309;-73
2024/01/03 01:51:35;;;;;;;1.87;0.57;;;9.30;99.90;;;;;;5067798;28;20909;-74
2024/01/03 01:54:02;;;;;;;0.67;0.60;;;9.30;99.90;;;;;;5068447;28;20446;-73
2024/01/03 01:56:29;;;;;;;5.67;0.77;;;9.30;99.90;;;;;;5070644;28;20466;-73
2024/01/03 01:58:56;;;;;;;4.63;0.60;;;9.40;99.90;;;;;;5069750;28;20501;-73
2024/01/03 02:01:22;;;;;;;2.33;0.70;;;9.40;99.90;;;;;;5072310;28;20501;-73
2024/01/03 02:03:49;;;;;;;1.60;0.80;;;9.40;99.90;;;;;;5070151;28;20462;-73
2024/01/03 02:06:18;;;;;;;1.03;0.53;;;9.30;99.90;;;;;;5064875;28;20259;-73
2024/01/03 02:08:44;;;;;;;2.60;1.00;;;9.30;99.90;;;;;;5068807;28;20447;-73
2024/01/03 02:11:10;;;;;;;2.07;0.70;;;9.30;99.90;;;;;;5051772;28;20450;-73
2024/01/03 02:13:35;;;;;;;3.13;0.83;;;9.30;99.90;;;;;;5067336;28;20251;-74
2024/01/03 02:16:01;;;;;;;1.43;0.70;;;9.30;99.90;;;;;;5053006;28;20224;-73
2024/01/03 02:18:27;;;;;;;2.10;1.03;;;9.30;99.90;;;;;;5067714;28;20466;-73
2024/01/03 02:20:57;;;;;;;4.33;0.90;;;9.30;99.90;;;;;;5075549;28;20214;-74
2024/01/03 02:23:23;;;;;;;1.90;0.83;;;9.30;99.90;;;;;;5050786;28;20208;-74
2024/01/03 02:25:49;;;;;;;5.20;1.20;;;9.40;99.90;;;;;;5067407;28;20525;-74
2024/01/03 02:28:16;;;;;;;1.20;0.77;;;9.30;99.90;;;;;;5069754;28;20859;-73
2024/01/03 02:30:44;;;;;;;2.40;0.80;;;9.30;99.90;;;;;;5060790;28;20212;-74
2024/01/03 02:33:11;;;;;;;3.07;1.00;;;9.30;99.90;;;;;;5065150;28;20470;-74
2024/01/03 02:35:37;;;;;;;4.20;0.90;;;9.30;99.90;;;;;;5066550;28;20454;-73
2024/01/03 02:38:02;;;;;;;5.83;1.27;;;9.30;99.90;;;;;;5068347;28;20461;-73
2024/01/03 02:40:28;;;;;;;1.40;0.80;;;9.30;99.90;;;;;;5068170;28;20738;-73
2024/01/03 02:42:54;;;;;;;1.73;0.70;;;9.20;99.90;;;;;;5066695;28;20240;-74
2024/01/03 02:45:19;;;;;;;3.77;0.87;;;9.20;99.90;;;;;;5068661;28;20242;-73
2024/01/03 02:47:45;;;;;;;2.67;0.87;;;9.20;99.90;;;;;;5067386;28;20222;-74
2024/01/03 02:50:11;;;;;;;2.77;1.10;;;9.20;99.90;;;;;;5050466;28;20223;-73
2024/01/03 02:52:36;;;;;;;1.87;0.90;;;9.20;99.90;;;;;;5066335;28;20294;-74
2024/01/03 02:55:02;;;;;;;1.80;0.70;;;9.20;99.90;;;;;;5070985;28;20223;-74
2024/01/03 02:57:28;;;;;;;1.67;0.70;;;9.10;99.90;;;;;;5069390;28;20223;-73
2024/01/03 02:59:53;;;;;;;2.30;0.97;;;9.10;99.90;;;;;;5081153;28;20314;-73
2024/01/03 03:02:19;;;;;;;1.93;1.23;;;9.10;99.90;;;;;;5073771;28;20220;-73
2024/01/03 03:04:45;;;;;;;2.20;0.80;;;9.10;99.90;;;;;;5084163;28;20225;-74
2024/01/03 03:07:10;;;;;;;2.47;1.20;;;9.00;99.90;;;;;;5053725;28;20288;-73
2024/01/03 03:09:36;;;;;;;0.80;0.60;;;9.10;99.90;;;;;;5068216;28;20224;-74
2024/01/03 03:12:02;;;;;;;0.80;0.70;;;9.00;99.90;;;;;;5068828;28;20219;-73
2024/01/03 03:14:27;;;;;;;2.60;1.20;;;9.00;99.90;;;;;;5052463;28;20227;-74
2024/01/03 03:16:53;;;;;;;3.83;0.80;;;9.00;99.90;;;;;;5066205;28;20216;-73
2024/01/03 03:19:19;;;;;;;1.50;0.80;;;9.00;99.90;;;;;;5068240;28;20592;-73
2024/01/03 03:21:44;;;;;;;2.60;0.87;;;9.00;99.90;;;;;;5066277;28;20239;-74
2024/01/03 03:24:10;;;;;;;0.63;0.50;;;9.00;99.90;;;;;;5067292;28;20215;-73
2024/01/03 03:26:36;;;;;;;1.20;1.10;;;9.00;99.90;;;;;;5069416;28;20330;-73
2024/01/03 03:29:01;;;;;;;3.80;0.80;;;9.00;99.90;;;;;;5073790;28;20265;-73
2024/01/03 03:31:27;;;;;;;4.53;1.40;;;9.00;99.90;;;;;;5069447;28;20270;-74
2024/01/03 03:33:53;;;;;;;5.70;1.03;;;9.00;99.90;;;;;;5076145;28;20254;-74
2024/01/03 03:36:20;;;;;;;2.03;0.93;;;9.00;99.90;;;;;;5068751;28;20301;-74
2024/01/03 03:38:46;;;;;;;3.50;0.70;;;9.00;99.90;;;;;;5068203;28;20228;-73
2024/01/03 03:41:12;;;;;;;1.20;0.90;;;9.00;99.90;;;;;;5068391;28;20968;-74
2024/01/03 03:43:39;;;;;;;1.30;0.90;;;8.90;99.90;;;;;;5064969;28;20454;-74
2024/01/03 03:46:06;;;;;;;1.53;0.90;;;9.00;99.90;;;;;;5051357;28;20736;-74
2024/01/03 03:48:32;;;;;;;1.33;0.77;;;8.90;99.90;;;;;;5065007;28;20446;-73
2024/01/03 03:50:58;;;;;;;4.53;1.67;;;9.00;99.90;;;;;;5065969;28;20466;-74
2024/01/03 03:53:24;;;;;;;2.90;0.80;;;9.00;99.90;;;;;;5068716;28;21049;-74
2024/01/03 03:55:49;;;;;;;1.80;0.77;;;9.00;99.90;;;;;;5068522;28;20541;-74
2024/01/03 03:58:15;;;;;;;0.80;0.80;;;9.00;99.90;;;;;;5070833;28;20220;-73
2024/01/03 04:00:40;;;;;;;1.20;0.80;;;9.00;99.90;;;;;;5073681;28;20296;-74
2024/01/03 04:03:08;;;;;;;6.57;1.13;;;9.00;99.90;;;;;;5071603;28;20247;-72
2024/01/03 04:05:39;;;;;;;2.80;0.90;;;9.00;99.90;;;;;;5070805;28;20219;-73
2024/01/03 04:08:05;;;;;;;1.87;0.70;;;9.00;99.90;;;;;;5071462;28;20457;-74
2024/01/03 04:10:31;;;;;;;5.03;1.20;;;9.00;99.90;;;;;;5088076;28;20458;-73
2024/01/03 04:12:57;;;;;;;6.60;1.27;;;9.00;99.90;;;;;;5071304;28;20219;-73
2024/01/03 04:15:23;;;;;;;2.87;0.93;;;9.00;99.90;;;;;;5069826;28;20651;-73
2024/01/03 04:17:49;;;;;;;6.43;1.20;;;9.00;99.90;;;;;;5060122;28;20307;-73
2024/01/03 04:20:15;;;;;;;6.70;1.57;;;9.00;99.90;;;;;;5054491;28;21012;-74
2024/01/03 04:22:43;;;;;;;2.27;1.13;;;9.00;99.90;;;;;;5071100;28;20454;-74
2024/01/03 04:25:09;;;;;;;3.27;1.13;;;9.00;99.90;;;;;;5054110;28;20443;-73
2024/01/03 04:27:35;;;;;;;2.30;0.93;;;9.00;99.90;;;;;;5072820;28;20836;-74
2024/01/03 04:30:02;;;;;;;3.33;1.13;;;9.00;99.90;;;;;;5072428;28;20829;-73
2024/01/03 04:32:27;;;;;;;3.77;1.30;;;9.00;99.90;;;;;;5071446;28;20480;-74
2024/01/03 04:34:53;;;;;;;4.33;1.07;;;9.00;99.90;;;;;;5070271;28;20454;-74
2024/01/03 04:37:18;;;;;;;8.30;1.67;;;9.00;99.90;;;;;;5069489;28;20217;-74
2024/01/03 04:39:44;;;;;;;3.90;1.00;;;9.00;99.90;;;;;;5053485;28;20674;-74
2024/01/03 04:42:10;;;;;;;5.73;1.03;;;9.00;99.90;;;;;;5072139;28;20223;-73
2024/01/03 04:44:36;;;;;;;2.40;1.10;;;9.00;99.90;;;;;;5073733;28;20227;-74
2024/01/03 04:47:02;;;;;;;2.20;1.03;;;9.00;99.90;;;;;;5071802;28;20224;-74
2024/01/03 04:49:31;;;;;;;2.87;1.37;;;9.00;99.90;;;;;;5075006;28;20505;-74
2024/01/03 04:51:56;;;;;;;2.27;1.13;;;9.00;99.90;;;;;;5074112;28;20220;-74
2024/01/03 04:54:22;;;;;;;7.80;1.30;;;9.00;99.90;;;;;;5067578;28;20502;-74
2024/01/03 04:56:48;;;;;;;5.03;1.30;;;9.00;99.90;;;;;;5068328;28;20682;-74
2024/01/03 04:59:13;;;;;;;8.80;1.53;;;9.00;99.90;;;;;;5072644;28;20228;-74
2024/01/03 05:01:40;;;;;;;1.83;1.13;;;9.00;99.90;;;;;;5073901;28;20317;-74
2024/01/03 05:04:06;;;;;;;1.00;0.90;;;9.00;99.90;;;;;;5071628;28;20216;-74
2024/01/03 05:06:32;;;;;;;1.03;0.87;;;9.00;99.90;;;;;;5079813;28;20469;-74
2024/01/03 05:08:58;;;;;;;1.83;0.87;;;9.00;99.90;;;;;;5069635;28;20222;-74
2024/01/03 05:11:23;;;;;;;3.30;1.10;;;9.00;99.90;;;;;;5069887;28;20458;-75
2024/01/03 05:13:49;;;;;;;4.10;1.30;;;9.10;99.90;;;;;;5070596;28;20235;-74
2024/01/03 05:16:15;;;;;;;6.43;1.57;;;9.10;99.90;;;;;;5071272;28;20251;-73
2024/01/03 05:18:40;;;;;;;5.77;1.73;;;9.10;99.90;;;;;;5052621;28;20231;-74
2024/01/03 05:21:06;;;;;;;3.43;1.57;;;9.10;99.90;;;;;;5069022;28;20228;-73
2024/01/03 05:23:32;;;;;;;2.17;1.20;;;9.10;99.90;;;;;;5070261;28;20251;-74
2024/01/03 05:25:58;;;;;;;3.03;1.13;;;9.10;99.90;;;;;;5070559;28;20218;-74
2024/01/03 05:28:24;;;;;;;3.70;1.27;;;9.10;99.90;;;;;;5073091;28;20273;-74
2024/01/03 05:30:49;;;;;;;5.07;1.20;;;9.20;99.90;;;;;;5052404;28;20219;-74
2024/01/03 05:33:15;;;;;;;4.47;1.10;;;9.10;99.90;;;;;;5070091;28;20207;-74
2024/01/03 05:35:41;;;;;;;5.60;1.47;;;9.10;99.90;;;;;;5074131;28;20265;-74
2024/01/03 05:38:07;;;;;;;1.80;1.20;;;9.10;99.90;;;;;;5068836;28;20215;-75
2024/01/03 05:40:32;;;;;;;2.60;1.10;;;9.20;99.90;;;;;;5069626;28;20250;-74
2024/01/03 05:42:58;;;;;;;4.63;1.50;;;9.20;99.90;;;;;;5070359;28;20212;-74
2024/01/03 05:45:24;;;;;;;3.77;1.53;;;9.20;99.90;;;;;;5058450;28;20292;-74
2024/01/03 05:47:49;;;;;;;6.23;1.40;;;9.20;99.90;;;;;;5068633;28;20216;-74
2024/01/03 05:50:15;;;;;;;4.13;1.50;;;9.20;99.90;;;;;;5069525;28;20476;-74
2024/01/03 05:52:41;;;;;;;3.73;1.40;;;9.20;99.90;;;;;;5069028;28;20215;-74
2024/01/03 05:55:07;;;;;;;5.00;1.70;;;9.20;99.90;;;;;;5069737;28;20215;-74
2024/01/03 05:57:33;;;;;;;6.37;1.80;;;9.20;99.90;;;;;;5061284;28;20212;-74
2024/01/03 05:59:59;;;;;;;8.00;1.50;;;9.20;99.90;;;;;;5069981;28;21047;-74
2024/01/03 06:02:25;;;;;;;6.73;2.30;;;9.20;99.90;;;;;;5087080;28;20516;-74
2024/01/03 06:04:50;;;;;;;11.50;1.70;;;9.20;99.90;;;;;;5067300;28;20218;-74
2024/01/03 06:07:16;;;;;;;5.93;2.10;;;9.20;99.90;;;;;;5068034;28;20226;-73
2024/01/03 06:09:41;;;;;;;4.60;1.47;;;9.20;99.90;;;;;;5075064;28;20247;-74
2024/01/03 06:12:08;;;;;;;4.77;1.37;;;9.20;99.90;;;;;;5071279;28;20220;-73
2024/01/03 06:14:33;;;;;;;2.93;1.13;;;9.20;99.90;;;;;;5069558;28;20244;-74
2024/01/03 06:16:59;;;;;;;3.47;1.30;;;9.20;99.90;;;;;;5074353;28;20473;-74
2024/01/03 06:19:25;;;;;;;5.23;1.07;;;9.20;99.90;;;;;;5069331;28;20227;-74
2024/01/03 06:21:50;;;;;;;1.30;1.10;;;9.20;99.90;;;;;;5071228;28;20273;-74
2024/01/03 06:24:16;;;;;;;3.20;1.20;;;9.20;99.90;;;;;;5053615;28;20234;-74
2024/01/03 06:26:42;;;;;;;4.37;1.37;;;9.20;99.90;;;;;;5072717;28;20662;-73
2024/01/03 06:29:08;;;;;;;3.47;1.30;;;9.20;99.90;;;;;;5068341;28;20286;-73
2024/01/03 06:31:34;;;;;;;3.53;1.20;;;9.20;99.90;;;;;;5085568;28;20462;-74
2024/01/03 06:34:00;;;;;;;6.83;1.33;;;9.10;99.90;;;;;;5069024;28;20456;-75
2024/01/03 06:36:26;;;;;;;5.00;1.00;;;9.10;99.90;;;;;;5068474;28;20232;-74
2024/01/03 06:38:51;;;;;;;5.10;1.70;;;9.10;99.90;;;;;;5071000;28;20224;-74
2024/01/03 06:41:18;;;;;;;2.20;1.07;;;9.10;99.90;;;;;;5066709;28;20240;-74
2024/01/03 06:43:46;;;;;;;4.73;1.17;;;9.10;99.90;;;;;;5055577;28;20299;-74
2024/01/03 06:46:12;;;;;;;1.73;1.00;;;9.10;99.90;;;;;;5073315;28;20503;-73
2024/01/03 06:48:38;;;;;;;17.17;1.43;;;9.00;99.90;;;;;;5071162;28;20466;-73
2024/01/03 06:51:04;;;;;;;7.70;1.70;;;9.00;99.90;;;;;;5085461;28;20211;-74
2024/01/03 06:53:30;;;;;;;4.33;1.67;;;9.00;99.90;;;;;;5085582;28;20367;-74
2024/01/03 06:55:56;;;;;;;3.63;1.40;;;9.00;99.90;;;;;;5067148;28;20219;-74
2024/01/03 06:58:22;;;;;;;5.40;1.47;;;9.00;99.90;;;;;;5068911;28;20579;-75
2024/01/03 07:00:48;;;;;;;3.17;1.13;;;9.00;99.90;;;;;;5059141;28;20461;-73
2024/01/03 07:03:15;;;;;;;1.90;1.03;;;9.00;99.90;;;;;;5067155;28;20462;-74
2024/01/03 07:05:41;;;;;;;3.67;1.30;;;9.00;99.90;;;;;;5064275;28;20525;-74
2024/01/03 07:08:07;;;;;;;2.53;1.30;;;9.00;99.90;;;;;;5084771;28;20576;-74
2024/01/03 07:10:33;;;;;;;4.57;1.33;;;9.10;99.90;;;;;;5069317;28;20224;-73
2024/01/03 07:12:59;;;;;;;10.00;1.60;;;9.00;99.90;;;;;;5068606;28;20446;-74
2024/01/03 07:15:26;;;;;;;4.00;1.60;;;9.00;99.90;;;;;;5084377;28;20224;-75
2024/01/03 07:17:52;;;;;;;6.80;1.80;;;9.10;99.90;;;;;;5067662;28;20207;-74
2024/01/03 07:20:18;;;;;;;6.83;1.47;;;9.10;99.90;;;;;;5068560;28;20470;-73
2024/01/03 07:22:44;;;;;;;7.37;1.70;;;9.10;99.90;;;;;;5054878;28;20236;-74
2024/01/03 07:25:09;;;;;;;2.07;1.03;;;9.10;99.90;;;;;;5050263;28;20519;-74
2024/01/03 07:27:35;;;;;;;2.80;0.97;;;9.10;99.90;;;;;;5067121;28;20285;-74
2024/01/03 07:30:01;;;;;;;0.97;0.60;;;9.10;99.90;;;;;;5049442;28;20278;-74
2024/01/03 07:32:26;;;;;;;2.20;1.00;;;9.20;99.90;;;;;;5050874;28;20230;-74
2024/01/03 07:34:53;;;;;;;3.40;0.93;;;9.20;99.90;;;;;;5067068;28;20223;-74
2024/01/03 07:37:18;;;;;;;10.20;1.43;;;9.20;99.90;;;;;;5067147;28;20577;-74
2024/01/03 07:39:45;;;;;;;2.20;0.97;;;9.20;99.90;;;;;;5050606;28;20577;-73
2024/01/03 07:42:10;;;;;;;1.80;0.80;;;9.20;99.90;;;;;;5067405;28;21039;-73
2024/01/03 07:44:41;;;;;;;0.60;0.57;;;9.20;99.90;;;;;;5054457;28;20318;-74
2024/01/03 07:47:08;;;;;;;1.80;1.03;;;9.20;99.90;;;;;;5065798;28;20249;-74
2024/01/03 07:49:35;;;;;;;3.13;0.60;;;9.20;99.90;;;;;;5067208;28;20484;-74
2024/01/03 07:52:01;;;;;;;4.27;1.37;;;9.20;99.90;;;;;;5062264;28;20450;-74
2024/01/03 07:54:26;;;;;;;4.17;1.37;;;9.20;99.90;;;;;;5067969;28;20465;-74
2024/01/03 07:56:52;;;;;;;2.67;0.83;;;9.20;99.90;;;;;;5069265;28;20632;-74
2024/01/03 07:59:17;;;;;;;1.20;0.97;;;9.20;99.90;;;;;;5050633;28;20279;-74
2024/01/03 08:01:43;;;;;;;2.80;1.10;;;9.20;99.90;;;;;;5069725;28;20216;-74
2024/01/03 08:04:09;;;;;;;3.53;0.97;;;9.30;99.90;;;;;;5064004;28;20593;-73
2024/01/03 08:06:34;;;;;;;2.83;1.40;;;9.20;99.90;;;;;;5068200;28;20226;-74
2024/01/03 08:09:00;;;;;;;1.00;0.77;;;9.20;99.90;;;;;;5071756;28;20416;-74
2024/01/03 08:11:26;;;;;;;1.43;0.60;;;9.20;99.90;;;;;;5048582;28;20231;-73
2024/01/03 08:13:51;;;;;;;3.97;0.83;;;9.20;99.90;;;;;;5029523;28;20237;-73
2024/01/03 08:16:17;;;;;;;2.70;1.00;;;9.20;99.90;;;;;;5038282;28;20211;-73
2024/01/03 08:18:44;;;;;;;1.80;0.90;;;9.20;99.90;;;;;;5078252;28;20269;-73
2024/01/03 08:21:10;;;;;;;5.80;1.23;;;9.20;99.90;;;;;;5047580;28;20287;-73
2024/01/03 08:23:36;;;;;;;1.43;0.93;;;9.20;99.90;;;;;;5063192;28;20459;-74
2024/01/03 08:26:08;;;;;;;2.00;0.90;;;9.20;99.90;;;;;;5047406;28;20454;-74
2024/01/03 08:28:40;;;;;;;0.87;0.77;;;9.20;99.90;;;;;;5048720;28;20225;-74
2024/01/03 08:31:08;;;;;;;1.17;0.80;;;9.20;99.90;;;;;;5070277;28;20500;-73
2024/01/03 08:33:34;;;;;;;1.57;0.90;;;9.30;99.90;;;;;;5052018;28;20442;-74
2024/01/03 08:36:01;;;;;;;2.50;1.10;;;9.30;99.90;;;;;;5044039;28;20965;-74
2024/01/03 08:38:27;;;;;;;1.17;1.10;;;9.30;99.90;;;;;;5062376;28;20479;-74
2024/01/03 08:40:52;;;;;;;4.93;1.40;;;9.30;99.90;;;;;;5048617;28;20463;-74
2024/01/03 08:43:18;;;;;;;3.10;0.80;;;9.30;99.90;;;;;;5070474;28;20576;-73
2024/01/03 08:45:44;;;;;;;3.00;1.20;;;9.40;99.90;;;;;;5060593;28;20563;-74
2024/01/03 08:48:09;;;;;;;1.30;0.90;;;9.40;99.90;;;;;;5052423;28;20821;-74
2024/01/03 08:50:35;;;;;;;5.70;1.10;;;9.40;99.90;;;;;;5074623;28;20211;-75
2024/01/03 08:53:00;;;;;;;4.37;1.20;;;9.40;99.90;;;;;;5048963;28;20770;-74
2024/01/03 08:55:26;;;;;;;3.70;1.13;;;9.40;99.90;;;;;;5066539;28;20244;-74
2024/01/03 08:57:56;;;;;;;2.30;1.20;;;9.40;99.90;;;;;;5049561;28;20213;-74
2024/01/03 09:00:23;;;;;;;7.10;1.20;;;9.50;99.90;;;;;;5054213;28;20254;-74
2024/01/03 09:02:49;;;;;;;4.73;1.67;;;9.50;99.90;;;;;;5054755;28;20535;-74
2024/01/03 09:05:15;;;;;;;8.70;1.23;;;9.60;99.90;;;;;;5050619;28;20529;-74
2024/01/03 09:07:43;;;;;;;1.27;1.17;;;9.60;99.90;;;;;;5046241;28;20215;-74
2024/01/03 09:10:09;;;;;;;3.33;0.80;;;9.70;99.90;;;;;;5049260;28;20286;-74
2024/01/03 09:12:34;;;;;;;2.27;0.90;;;9.90;99.90;;;;;;5050459;28;20459;-74
2024/01/03 09:15:00;;;;;;;4.23;1.13;;;10.00;99.90;;;;;;5033068;28;20452;-74
2024/01/03 09:17:26;;;;;;;2.13;0.87;;;10.00;99.90;;;;;;5033714;28;20224;-75
2024/01/03 09:19:51;;;;;;;1.87;1.20;;;10.20;99.90;;;;;;5049008;28;20220;-74
2024/01/03 09:22:17;;;;;;;1.20;1.10;;;10.50;99.90;;;;;;5067344;28;20764;-73
2024/01/03 09:24:42;;;;;;;2.70;1.10;;;10.50;99.90;;;;;;5071372;28;20288;-74
2024/01/03 09:27:08;;;;;;;3.57;0.87;;;10.50;99.90;;;;;;5073414;28;20257;-74
2024/01/03 09:29:34;;;;;;;1.23;0.60;;;10.50;99.90;;;;;;5069595;28;20380;-74
2024/01/03 09:32:00;;;;;;;5.90;0.90;;;10.50;99.90;;;;;;5070290;28;20290;-74
2024/01/03 09:34:26;;;;;;;1.73;0.77;;;10.70;99.90;;;;;;5070904;28;20223;-74
2024/01/03 09:36:54;;;;;;;1.20;0.80;;;10.70;99.90;;;;;;5069799;28;20442;-74
2024/01/03 09:39:20;;;;;;;1.60;0.60;;;10.70;99.90;;;;;;5073330;28;20719;-74
2024/01/03 09:41:47;;;;;;;2.30;0.87;;;10.80;99.90;;;;;;5071293;28;20545;-74
2024/01/03 09:44:13;;;;;;;2.00;0.80;;;10.70;99.90;;;;;;5071130;28;20308;-73
2024/01/03 09:46:39;;;;;;;2.60;1.00;;;10.70;99.90;;;;;;5081602;28;20536;-74
2024/01/03 09:49:05;;;;;;;1.77;0.87;;;10.70;99.90;;;;;;5070322;28;20637;-73
2024/01/03 09:51:31;;;;;;;3.40;1.00;;;10.70;99.90;;;;;;5086353;28;20561;-74
2024/01/03 09:53:57;;;;;;;1.87;0.97;;;10.70;99.90;;;;;;5072343;28;20216;-74
2024/01/03 09:56:23;;;;;;;6.20;1.03;;;10.70;99.90;;;;;;5070090;28;20471;-74
2024/01/03 09:58:49;;;;;;;3.40;1.00;;;10.70;99.90;;;;;;5067636;28;20463;-74
2024/01/03 10:01:15;;;;;;;1.43;0.73;;;10.70;99.90;;;;;;5068517;28;20216;-74
2024/01/03 10:03:40;;;;;;;5.30;1.10;;;10.80;99.90;;;;;;5068550;28;20241;-74
2024/01/03 10:06:15;;;;;;;1.83;1.33;;;10.80;99.90;;;;;;5070037;28;20573;-74
2024/01/03 10:08:41;;;;;;;2.93;1.07;;;10.90;99.90;;;;;;5065694;28;20211;-74
2024/01/03 10:11:25;;;;;;;3.03;0.73;;;10.90;99.90;;;;;;5069872;28;20457;-73
2024/01/03 10:13:54;;;;;;;5.00;1.40;;;10.90;99.90;;;;;;5086571;28;20467;-74
2024/01/03 10:16:24;;;;;;;5.97;1.20;;;11.00;99.90;;;;;;5055930;28;20485;-74
2024/01/03 10:19:26;;;;;;;2.20;0.70;;;11.00;99.90;;;;;;5071807;28;20620;-74
2024/01/03 10:21:55;;;;;;;4.13;1.30;;;10.90;99.90;;;;;;5055245;28;20460;-75
2024/01/03 10:24:26;;;;;;;0.67;0.63;;;10.90;99.90;;;;;;5089360;28;20474;-74
2024/01/03 10:26:51;;;;;;;3.70;1.00;;;10.90;99.90;;;;;;5069279;28;20452;-74
2024/01/03 10:29:18;;;;;;;2.57;0.80;;;10.90;99.90;;;;;;5068719;28;20454;-74
2024/01/03 10:31:46;;;;;;;1.47;0.93;;;10.90;99.90;;;;;;5067890;28;20270;-74
2024/01/03 10:34:17;;;;;;;3.97;1.47;;;10.90;99.90;;;;;;5069802;28;20477;-73
2024/01/03 10:36:47;;;;;;;2.63;0.73;;;10.90;99.90;;;;;;5064935;28;20932;-75
2024/01/03 10:39:16;;;;;;;3.43;1.03;;;10.90;99.90;;;;;;5062623;28;21051;-74
2024/01/03 10:41:46;;;;;;;5.77;1.20;;;10.90;99.90;;;;;;5064936;28;20458;-75
2024/01/03 10:44:16;;;;;;;2.33;1.17;;;10.90;99.90;;;;;;5068854;28;20452;-74
2024/01/03 10:46:43;;;;;;;3.30;1.00;;;10.90;99.90;;;;;;5066535;28;20466;-75
2024/01/03 10:49:09;;;;;;;3.17;0.87;;;10.90;99.90;;;;;;5067268;28;20516;-75
2024/01/03 10:51:40;;;;;;;2.80;1.00;;;10.90;99.90;;;;;;5067747;28;20455;-75
2024/01/03 10:54:09;;;;;;;3.83;1.60;;;10.90;99.90;;;;;;5065603;28;20302;-75
2024/01/03 10:56:36;;;;;;;2.20;1.03;;;10.90;99.90;;;;;;5054373;28;20475;-75
2024/01/03 10:59:05;;;;;;;5.13;0.97;;;10.90;99.90;;;;;;5047205;28;20458;-75
2024/01/03 11:02:24;;;;;;;3.27;0.93;;;10.90;99.90;;;;;;5049068;28;20462;-76
2024/01/03 11:05:02;;;;;;;3.80;0.93;;;10.90;99.90;;;;;;5018916;28;20552;-75
2024/01/03 11:07:42;;;;;;;3.87;1.33;;;11.00;99.90;;;;;;5050338;28;20450;-75
2024/01/03 11:10:08;;;;;;;9.77;1.57;;;11.00;99.90;;;;;;5044547;28;20553;-75
2024/01/03 11:12:34;;;;;;;4.20;1.17;;;11.00;99.90;;;;;;5047419;28;20463;-75
2024/01/03 11:15:22;;;;;;;4.13;1.57;;;11.10;99.90;;;;;;5050698;28;20220;-75
2024/01/03 11:17:48;;;;;;;3.80;1.70;;;11.10;99.90;;;;;;5063674;28;20298;-75
2024/01/03 11:20:14;;;;;;;2.63;1.07;;;11.10;99.90;;;;;;5048337;28;20485;-75
2024/01/03 11:23:00;;;;;;;1.20;1.00;;;11.10;99.90;;;;;;5029986;28;20205;-76
2024/01/03 11:25:49;;;;;;;7.83;1.70;;;11.10;99.90;;;;;;5063645;28;20224;-75
2024/01/03 11:28:36;;;;;;;4.47;1.13;;;11.10;99.90;;;;;;5048070;28;20870;-75
2024/01/03 11:31:01;;;;;;;3.80;1.10;;;11.10;99.90;;;;;;5061832;28;20451;-75
2024/01/03 11:33:30;;;;;;;7.30;1.57;;;11.10;99.90;;;;;;5048708;28;20447;-75
2024/01/03 11:35:56;;;;;;;8.50;1.30;;;11.00;99.90;;;;;;5047745;28;20224;-75
2024/01/03 11:38:41;;;;;;;3.17;1.20;;;11.00;99.90;;;;;;5049494;28;20483;-75
2024/01/03 11:41:11;;;;;;;2.73;1.23;;;11.00;99.90;;;;;;5045321;28;20642;-74
2024/01/03 11:43:36;;;;;;;3.80;1.17;;;11.00;99.90;;;;;;5055510;28;20453;-75
2024/01/03 11:46:08;;;;;;;2.17;0.83;;;11.00;99.90;;;;;;5065261;28;20451;-75
2024/01/03 11:48:33;;;;;;;4.93;1.30;;;11.00;99.90;;;;;;5063349;28;20713;-75
2024/01/03 11:50:59;;;;;;;4.33;1.07;;;11.00;99.90;;;;;;5060337;28;20475;-76
2024/01/03 11:53:25;;;;;;;5.10;2.97;;;11.00;99.90;;;;;;5068757;28;20298;-75
2024/01/03 11:55:51;;;;;;;2.90;1.60;;;11.00;99.90;;;;;;5065375;28;20245;-75
2024/01/03 11:58:16;;;;;;;5.43;1.33;;;11.00;99.90;;;;;;5053445;28;20223;-75
2024/01/03 12:00:42;;;;;;;2.70;1.27;;;11.00;99.90;;;;;;5067156;28;20215;-75
2024/01/03 12:03:08;;;;;;;1.87;1.43;;;11.00;99.90;;;;;;5047223;28;20220;-76
2024/01/03 12:05:43;;;;;;;11.23;2.33;;;11.00;99.90;;;;;;5047225;28;20251;-76
2024/01/03 12:08:09;;;;;;;3.23;1.30;;;11.00;99.90;;;;;;5046073;28;20227;-76
2024/01/03 12:10:35;;;;;;;5.97;1.47;;;11.00;99.90;;;;;;5047078;28;20451;-75
2024/01/03 12:13:01;;;;;;;3.27;1.70;;;10.90;99.90;;;;;;5046532;28;20477;-75
2024/01/03 12:15:28;;;;;;;3.20;1.20;;;10.90;99.90;;;;;;5049553;28;20447;-75
2024/01/03 12:18:06;;;;;;;1.87;0.90;;;11.00;99.90;;;;;;5037844;28;20278;-75
2024/01/03 12:20:33;;;;;;;3.93;1.47;;;11.00;99.90;;;;;;5051133;28;20530;-75
2024/01/03 12:23:09;;;;;;;5.97;1.50;;;11.00;99.90;;;;;;5051283;28;20454;-75
2024/01/03 12:25:35;;;;;;;7.13;2.07;;;11.10;99.90;;;;;;5075693;28;20983;-75
2024/01/03 12:28:00;;;;;;;6.03;1.23;;;11.20;99.90;;;;;;5050898;28;20507;-75
2024/01/03 12:30:26;;;;;;;2.20;1.63;;;11.30;99.90;;;;;;5066834;28;20224;-74
2024/01/03 12:33:11;;;;;;;3.00;1.10;;;11.30;99.90;;;;;;5071981;28;20250;-75
2024/01/03 12:35:37;;;;;;;6.97;1.20;;;11.30;99.90;;;;;;5069615;28;20258;-76
2024/01/03 12:38:04;;;;;;;3.40;1.40;;;11.40;99.90;;;;;;5073511;28;20454;-75
2024/01/03 12:40:30;;;;;;;1.70;1.10;;;11.40;99.90;;;;;;5067945;28;20470;-75
2024/01/03 12:42:56;;;;;;;8.10;1.00;;;11.40;99.90;;;;;;5071121;28;20450;-75
2024/01/03 12:45:21;;;;;;;4.40;1.60;;;11.40;99.90;;;;;;5087054;28;20728;-75
2024/01/03 12:47:48;;;;;;;6.50;1.60;;;11.30;99.90;;;;;;5068435;28;20224;-76
2024/01/03 12:50:14;;;;;;;2.60;1.03;;;11.30;99.90;;;;;;5059733;28;20215;-75
2024/01/03 12:52:39;;;;;;;4.97;1.17;;;11.30;99.90;;;;;;5074454;28;20469;-76